Wetterdaten: Woche 20.12.10 - 26.12.10 (KW51)
Datum Zeit Temp. Innen Temp. Aussen UV X Diff Temp. Feuchte Inne Feuchte Auss Sonnenschein Luftdruck Regen ab 0,1 Wind Sonnenschein T Regendauer Windben
20.12.2010 00:00 9,1 C -2,4 C 0,0 UV-I 0,0 C 49 % 93 % 0 % 992,3 hPa 0,0 l/m 4,1 km/h (1 Bft) 0,00 h 0,00 h 6,8 km/h (2 Bft)
20.12.2010 01:00 9,1 C -3,3 C 0,0 UV-I 0,0 C 48 % 93 % 0 % 995,5 hPa 0,0 l/m 3,9 km/h (1 Bft) 0,00 h 0,00 h 6,0 km/h (2 Bft)
20.12.2010 02:00 8,9 C -3,7 C 0,0 UV-I 0,0 C 47 % 93 % 0 % 997,7 hPa 0,0 l/m 2,5 km/h (1 Bft) 0,00 h 0,00 h 3,6 km/h (1 Bft)
20.12.2010 03:00 8,8 C -3,7 C 0,0 UV-I 0,0 C 47 % 93 % 0 % 999,5 hPa 0,0 l/m 1,9 km/h (1 Bft) 0,00 h 0,00 h 2,0 km/h (1 Bft)
20.12.2010 04:00 8,8 C -3,7 C 0,0 UV-I 0,0 C 47 % 93 % 0 % 1000,9 hPa 0,0 l/m 1,8 km/h (1 Bft) 0,00 h 0,00 h 3,1 km/h (1 Bft)
20.12.2010 05:00 8,7 C -3,7 C 0,0 UV-I 0,0 C 47 % 93 % 0 % 1001,8 hPa 0,0 l/m 1,2 km/h (1 Bft) 0,00 h 0,00 h 1,5 km/h (1 Bft)
20.12.2010 06:00 8,8 C -3,7 C 0,0 UV-I 0,0 C 47 % 94 % 0 % 1002,1 hPa 0,0 l/m 0,2 km/h (0 Bft) 0,00 h 0,00 h 0,3 km/h (0 Bft)
20.12.2010 07:00 8,7 C -3,6 C 0,0 UV-I 0,0 C 46 % 93 % 0 % 1002,6 hPa 0,0 l/m 0,0 km/h (0 Bft) 0,00 h 0,00 h 0,0 km/h (0 Bft)
20.12.2010 08:00 8,7 C -3,8 C 0,0 UV-I 0,0 C 46 % 93 % 0 % 1003,0 hPa 0,0 l/m 0,0 km/h (0 Bft) 0,00 h 0,00 h 0,1 km/h (0 Bft)
20.12.2010 09:00 8,6 C -4,3 C 0,0 UV-I 0,0 C 46 % 93 % 0 % 1003,4 hPa 0,0 l/m 0,3 km/h (0 Bft) 0,00 h 0,00 h 0,5 km/h (0 Bft)
20.12.2010 10:00 8,7 C -4,0 C 0,0 UV-I 0,0 C 46 % 93 % 0 % 1003,4 hPa 0,0 l/m 0,0 km/h (0 Bft) 0,00 h 0,00 h 0,0 km/h (0 Bft)
20.12.2010 11:00 8,9 C -3,3 C 0,0 UV-I 0,0 C 46 % 94 % 0 % 1003,7 hPa 0,0 l/m 0,0 km/h (0 Bft) 0,00 h 0,00 h 0,0 km/h (0 Bft)
20.12.2010 12:00 9,1 C -2,8 C 0,0 UV-I 0,4 C 46 % 93 % 11 % 1004,1 hPa 0,0 l/m 0,0 km/h (0 Bft) 0,00 h 0,00 h 0,0 km/h (0 Bft)
20.12.2010 13:00 9,3 C -2,4 C 0,0 UV-I 1,7 C 45 % 93 % 46 % 1005,0 hPa 0,0 l/m 0,1 km/h (0 Bft) 0,30 h 0,00 h 0,4 km/h (0 Bft)
20.12.2010 14:00 10,1 C -1,1 C 0,0 UV-I 3,5 C 45 % 92 % 84 % 1005,9 hPa 0,0 l/m 0,2 km/h (0 Bft) 0,87 h 0,00 h 0,5 km/h (0 Bft)
20.12.2010 15:00 10,2 C -1,8 C 0,0 UV-I 0,0 C 43 % 91 % 1 % 1006,3 hPa 0,0 l/m 0,0 km/h (0 Bft) 0,00 h 0,00 h 0,1 km/h (0 Bft)
20.12.2010 16:00 9,7 C -3,0 C 0,0 UV-I 0,0 C 44 % 91 % 0 % 1006,5 hPa 0,0 l/m 0,0 km/h (0 Bft) 0,00 h 0,00 h 0,0 km/h (0 Bft)
20.12.2010 17:00 9,1 C -4,5 C 0,0 UV-I 0,0 C 44 % 91 % 0 % 1006,8 hPa 0,0 l/m 0,0 km/h (0 Bft) 0,00 h 0,00 h 0,0 km/h (0 Bft)
20.12.2010 18:00 8,7 C -5,9 C 0,0 UV-I 0,0 C 44 % 91 % 0 % 1006,8 hPa 0,0 l/m 0,0 km/h (0 Bft) 0,00 h 0,00 h 0,0 km/h (0 Bft)
20.12.2010 19:00 8,4 C -6,6 C 0,0 UV-I 0,0 C 44 % 92 % 0 % 1006,8 hPa 0,0 l/m 0,2 km/h (0 Bft) 0,00 h 0,00 h 0,7 km/h (0 Bft)
20.12.2010 20:00 8,3 C -7,1 C 0,0 UV-I 0,0 C 44 % 92 % 0 % 1007,0 hPa 0,0 l/m 0,1 km/h (0 Bft) 0,00 h 0,00 h 0,0 km/h (0 Bft)
20.12.2010 21:00 8,1 C -7,7 C 0,0 UV-I 0,0 C 43 % 92 % 0 % 1006,5 hPa 0,0 l/m 0,9 km/h (0 Bft) 0,00 h 0,00 h 1,5 km/h (1 Bft)
20.12.2010 22:00 7,9 C -7,3 C 0,0 UV-I 0,0 C 43 % 93 % 0 % 1006,0 hPa 0,0 l/m 2,0 km/h (1 Bft) 0,00 h 0,00 h 2,9 km/h (1 Bft)
20.12.2010 23:00 7,9 C -7,4 C 0,0 UV-I 0,0 C 43 % 92 % 0 % 1005,8 hPa 0,0 l/m 0,7 km/h (0 Bft) 0,00 h 0,00 h 1,1 km/h (1 Bft)
21.12.2010 00:00 8,0 C -7,2 C 0,0 UV-I 0,0 C 43 % 93 % 0 % 1005,4 hPa 0,0 l/m 0,1 km/h (0 Bft) 0,00 h 0,00 h 0,2 km/h (0 Bft)
21.12.2010 01:00 7,9 C -5,9 C 0,0 UV-I 0,0 C 43 % 93 % 0 % 1004,7 hPa 0,0 l/m 0,1 km/h (0 Bft) 0,00 h 0,00 h 0,4 km/h (0 Bft)
21.12.2010 02:00 8,1 C -4,6 C 0,0 UV-I 0,0 C 44 % 94 % 0 % 1004,2 hPa 0,0 l/m 0,6 km/h (0 Bft) 0,00 h 0,00 h 1,6 km/h (1 Bft)
21.12.2010 03:00 8,3 C -3,5 C 0,0 UV-I 0,0 C 45 % 94 % 0 % 1003,9 hPa 0,0 l/m 0,5 km/h (0 Bft) 0,00 h 0,00 h 0,7 km/h (0 Bft)
21.12.2010 04:00 8,4 C -3,0 C 0,0 UV-I 0,0 C 45 % 94 % 0 % 1003,5 hPa 0,0 l/m 0,3 km/h (0 Bft) 0,00 h 0,00 h 0,4 km/h (0 Bft)
21.12.2010 05:00 8,5 C -2,5 C 0,0 UV-I 0,0 C 46 % 94 % 0 % 1003,2 hPa 0,0 l/m 0,0 km/h (0 Bft) 0,00 h 0,00 h 0,0 km/h (0 Bft)
21.12.2010 06:00 8,6 C -2,0 C 0,0 UV-I 0,0 C 46 % 94 % 0 % 1002,9 hPa 0,0 l/m 0,5 km/h (0 Bft) 0,00 h 0,00 h 0,7 km/h (0 Bft)
21.12.2010 07:00 8,7 C -1,5 C 0,0 UV-I 0,0 C 47 % 94 % 0 % 1002,9 hPa 0,0 l/m 0,6 km/h (0 Bft) 0,00 h 0,00 h 1,2 km/h (1 Bft)
21.12.2010 08:00 8,8 C -1,0 C 0,0 UV-I 0,0 C 48 % 94 % 0 % 1002,8 hPa 0,0 l/m 0,8 km/h (0 Bft) 0,00 h 0,00 h 1,5 km/h (1 Bft)
21.12.2010 09:00 8,8 C -0,5 C 0,0 UV-I 0,0 C 49 % 94 % 0 % 1003,4 hPa 0,0 l/m 0,3 km/h (0 Bft) 0,00 h 0,00 h 0,6 km/h (0 Bft)
21.12.2010 10:00 9,0 C 0,0 C 0,0 UV-I 0,0 C 49 % 94 % 0 % 1003,6 hPa 0,0 l/m 0,1 km/h (0 Bft) 0,00 h 0,00 h 0,0 km/h (0 Bft)
21.12.2010 11:00 9,2 C 0,5 C 0,0 UV-I 0,0 C 50 % 95 % 0 % 1004,3 hPa 0,0 l/m 0,1 km/h (0 Bft) 0,00 h 0,00 h 0,2 km/h (0 Bft)
21.12.2010 12:00 9,4 C 0,8 C 0,0 UV-I 0,0 C 50 % 94 % 1 % 1004,6 hPa 0,0 l/m 0,3 km/h (0 Bft) 0,00 h 0,00 h 0,6 km/h (0 Bft)
21.12.2010 13:00 9,6 C 0,9 C 0,0 UV-I 0,0 C 50 % 94 % 0 % 1004,8 hPa 0,0 l/m 0,4 km/h (0 Bft) 0,00 h 0,00 h 0,4 km/h (0 Bft)
21.12.2010 14:00 9,6 C 1,1 C 0,0 UV-I 0,2 C 51 % 94 % 6 % 1004,5 hPa 0,1 l/m 0,5 km/h (0 Bft) 0,00 h 0,00 h 0,4 km/h (0 Bft)
21.12.2010 15:00 9,6 C 1,2 C 0,0 UV-I 0,0 C 51 % 94 % 0 % 1004,6 hPa 0,2 l/m 0,1 km/h (0 Bft) 0,00 h 0,00 h 0,3 km/h (0 Bft)
21.12.2010 16:00 9,6 C 1,1 C 0,0 UV-I 0,0 C 51 % 94 % 0 % 1005,0 hPa 0,0 l/m 0,1 km/h (0 Bft) 0,00 h 0,00 h 0,1 km/h (0 Bft)
21.12.2010 17:00 9,6 C 1,0 C 0,0 UV-I 0,0 C 52 % 94 % 0 % 1004,9 hPa 0,2 l/m 0,0 km/h (0 Bft) 0,00 h 0,00 h 0,0 km/h (0 Bft)
21.12.2010 18:00 9,6 C 0,9 C 0,0 UV-I 0,0 C 52 % 94 % 0 % 1005,0 hPa 0,0 l/m 0,1 km/h (0 Bft) 0,00 h 0,00 h 0,0 km/h (0 Bft)
21.12.2010 19:00 9,7 C 1,1 C 0,0 UV-I 0,0 C 52 % 95 % 0 % 1005,1 hPa 0,0 l/m 0,4 km/h (0 Bft) 0,00 h 0,00 h 1,1 km/h (1 Bft)
21.12.2010 20:00 9,8 C 0,9 C 0,0 UV-I 0,0 C 52 % 95 % 0 % 1005,0 hPa 0,0 l/m 0,5 km/h (0 Bft) 0,00 h 0,00 h 0,3 km/h (0 Bft)
21.12.2010 21:00 9,8 C 0,8 C 0,0 UV-I 0,0 C 52 % 95 % 0 % 1005,0 hPa 0,0 l/m 0,0 km/h (0 Bft) 0,00 h 0,00 h 0,0 km/h (0 Bft)
21.12.2010 22:00 9,8 C 0,8 C 0,0 UV-I 0,0 C 52 % 95 % 0 % 1004,9 hPa 0,0 l/m 0,0 km/h (0 Bft) 0,00 h 0,00 h 0,0 km/h (0 Bft)
21.12.2010 23:00 9,9 C 1,1 C 0,0 UV-I 0,0 C 53 % 95 % 0 % 1005,1 hPa 0,0 l/m 0,0 km/h (0 Bft) 0,00 h 0,00 h 0,1 km/h (0 Bft)
22.12.2010 00:00 9,9 C 1,4 C 0,0 UV-I 0,0 C 53 % 95 % 0 % 1004,9 hPa 0,0 l/m 0,4 km/h (0 Bft) 0,00 h 0,00 h 1,3 km/h (1 Bft)
22.12.2010 01:00 9,9 C 1,4 C 0,0 UV-I 0,0 C 53 % 95 % 0 % 1004,7 hPa 0,0 l/m 0,7 km/h (0 Bft) 0,00 h 0,00 h 1,5 km/h (1 Bft)
22.12.2010 02:00 9,9 C 1,2 C 0,0 UV-I 0,0 C 53 % 95 % 0 % 1004,4 hPa 0,0 l/m 1,6 km/h (1 Bft) 0,00 h 0,00 h 2,5 km/h (1 Bft)
22.12.2010 03:00 10,1 C 1,1 C 0,0 UV-I 0,0 C 53 % 95 % 0 % 1004,3 hPa 0,0 l/m 1,1 km/h (1 Bft) 0,00 h 0,00 h 1,5 km/h (1 Bft)
22.12.2010 04:00 10,1 C 1,0 C 0,0 UV-I 0,0 C 53 % 95 % 0 % 1004,3 hPa 0,0 l/m 1,2 km/h (1 Bft) 0,00 h 0,00 h 1,7 km/h (1 Bft)
22.12.2010 05:00 10,2 C 0,8 C 0,0 UV-I 0,0 C 52 % 95 % 0 % 1003,7 hPa 0,0 l/m 0,8 km/h (0 Bft) 0,00 h 0,00 h 0,7 km/h (0 Bft)
22.12.2010 06:00 10,2 C 0,7 C 0,0 UV-I 0,0 C 52 % 95 % 0 % 1003,4 hPa 0,0 l/m 0,7 km/h (0 Bft) 0,00 h 0,00 h 0,9 km/h (0 Bft)
22.12.2010 07:00 10,2 C 0,8 C 0,0 UV-I 0,0 C 52 % 95 % 0 % 1003,4 hPa 0,0 l/m 0,3 km/h (0 Bft) 0,00 h 0,00 h 0,4 km/h (0 Bft)
22.12.2010 08:00 10,2 C 0,8 C 0,0 UV-I 0,0 C 52 % 95 % 0 % 1003,3 hPa 0,0 l/m 1,3 km/h (1 Bft) 0,00 h 0,00 h 1,8 km/h (1 Bft)
22.12.2010 09:00 10,2 C 0,8 C 0,0 UV-I 0,0 C 52 % 95 % 0 % 1003,5 hPa 0,0 l/m 1,9 km/h (1 Bft) 0,00 h 0,00 h 2,5 km/h (1 Bft)
22.12.2010 10:00 10,2 C 1,0 C 0,0 UV-I 0,0 C 52 % 95 % 0 % 1003,7 hPa 0,0 l/m 2,6 km/h (1 Bft) 0,00 h 0,00 h 3,3 km/h (1 Bft)
22.12.2010 11:00 10,3 C 1,2 C 0,0 UV-I 0,0 C 52 % 95 % 0 % 1003,8 hPa 0,4 l/m 3,0 km/h (1 Bft) 0,00 h 0,00 h 3,7 km/h (1 Bft)
22.12.2010 12:00 10,4 C 1,4 C 0,3 UV-I 0,2 C 52 % 95 % 5 % 1003,4 hPa 0,5 l/m 3,1 km/h (1 Bft) 0,00 h 0,00 h 3,8 km/h (1 Bft)
22.12.2010 13:00 10,6 C 1,5 C 0,4 UV-I 0,2 C 52 % 94 % 6 % 1003,3 hPa 0,6 l/m 4,1 km/h (1 Bft) 0,00 h 0,00 h 4,4 km/h (1 Bft)
22.12.2010 14:00 10,6 C 1,2 C 0,3 UV-I 0,0 C 52 % 94 % 0 % 1003,3 hPa 0,5 l/m 5,5 km/h (1 Bft) 0,00 h 0,00 h 5,6 km/h (1 Bft)
22.12.2010 15:00 10,6 C 1,1 C 0,0 UV-I 0,0 C 52 % 94 % 0 % 1003,0 hPa 0,3 l/m 4,0 km/h (1 Bft) 0,00 h 0,00 h 4,3 km/h (1 Bft)
22.12.2010 16:00 10,5 C 0,8 C 0,0 UV-I 0,0 C 52 % 94 % 0 % 1003,4 hPa 0,2 l/m 3,4 km/h (1 Bft) 0,00 h 0,00 h 3,3 km/h (1 Bft)
22.12.2010 17:00 10,3 C 0,6 C 0,0 UV-I 0,0 C 52 % 95 % 0 % 1003,4 hPa 0,1 l/m 4,6 km/h (1 Bft) 0,00 h 0,00 h 6,1 km/h (2 Bft)
22.12.2010 18:00 10,4 C 0,2 C 0,0 UV-I 0,0 C 52 % 95 % 0 % 1003,2 hPa 0,1 l/m 7,3 km/h (2 Bft) 0,00 h 0,00 h 6,7 km/h (2 Bft)
22.12.2010 19:00 10,2 C -0,2 C 0,0 UV-I 0,0 C 52 % 94 % 0 % 1003,4 hPa 0,0 l/m 7,8 km/h (2 Bft) 0,00 h 0,00 h 8,3 km/h (2 Bft)
22.12.2010 20:00 10,2 C -0,5 C 0,0 UV-I 0,0 C 52 % 95 % 0 % 1003,3 hPa 0,0 l/m 7,6 km/h (2 Bft) 0,00 h 0,00 h 7,7 km/h (2 Bft)
22.12.2010 21:00 10,1 C -0,8 C 0,0 UV-I 0,0 C 51 % 95 % 0 % 1003,0 hPa 0,0 l/m 8,4 km/h (2 Bft) 0,00 h 0,00 h 9,0 km/h (2 Bft)
22.12.2010 22:00 10,0 C -1,0 C 0,0 UV-I 0,0 C 51 % 95 % 0 % 1003,0 hPa 0,0 l/m 9,7 km/h (2 Bft) 0,00 h 0,00 h 9,5 km/h (2 Bft)
22.12.2010 23:00 10,0 C -1,2 C 0,0 UV-I 0,0 C 51 % 95 % 0 % 1002,9 hPa 0,0 l/m 11,6 km/h (2 Bft) 0,00 h 0,00 h 11,4 km/h (2 Bft)
23.12.2010 00:00 10,0 C -1,2 C 0,0 UV-I 0,0 C 51 % 95 % 0 % 1002,7 hPa 0,0 l/m 10,3 km/h (2 Bft) 0,00 h 0,00 h 11,1 km/h (2 Bft)
23.12.2010 01:00 9,9 C -1,3 C 0,0 UV-I 0,0 C 51 % 95 % 0 % 1002,6 hPa 0,0 l/m 11,7 km/h (2 Bft) 0,00 h 0,00 h 12,4 km/h (3 Bft)
23.12.2010 02:00 9,9 C -1,5 C 0,0 UV-I 0,0 C 51 % 95 % 0 % 1002,0 hPa 0,0 l/m 9,7 km/h (2 Bft) 0,00 h 0,00 h 10,7 km/h (2 Bft)
23.12.2010 03:00 9,8 C -1,7 C 0,0 UV-I 0,0 C 50 % 95 % 0 % 1001,8 hPa 0,0 l/m 11,3 km/h (2 Bft) 0,00 h 0,00 h 11,8 km/h (2 Bft)
23.12.2010 04:00 9,7 C -1,7 C 0,0 UV-I 0,0 C 50 % 95 % 0 % 1001,5 hPa 0,0 l/m 10,4 km/h (2 Bft) 0,00 h 0,00 h 10,7 km/h (2 Bft)
23.12.2010 05:00 9,6 C -1,8 C 0,0 UV-I 0,0 C 50 % 95 % 0 % 1001,4 hPa 0,0 l/m 9,2 km/h (2 Bft) 0,00 h 0,00 h 9,1 km/h (2 Bft)
23.12.2010 06:00 9,7 C -1,8 C 0,0 UV-I 0,0 C 50 % 95 % 0 % 1001,6 hPa 0,0 l/m 8,1 km/h (2 Bft) 0,00 h 0,00 h 9,3 km/h (2 Bft)
23.12.2010 07:00 9,6 C -1,7 C 0,0 UV-I 0,0 C 50 % 95 % 0 % 1001,5 hPa 0,0 l/m 10,8 km/h (2 Bft) 0,00 h 0,00 h 11,3 km/h (2 Bft)
23.12.2010 08:00 9,6 C -1,8 C 0,0 UV-I 0,0 C 49 % 95 % 0 % 1001,6 hPa 0,0 l/m 10,3 km/h (2 Bft) 0,00 h 0,00 h 9,9 km/h (2 Bft)
23.12.2010 09:00 9,6 C -1,9 C 0,0 UV-I 0,0 C 49 % 94 % 0 % 1001,9 hPa 0,0 l/m 10,9 km/h (2 Bft) 0,00 h 0,00 h 10,7 km/h (2 Bft)
23.12.2010 10:00 9,6 C -2,0 C 0,0 UV-I 0,0 C 49 % 94 % 0 % 1002,6 hPa 0,0 l/m 11,3 km/h (2 Bft) 0,00 h 0,00 h 11,8 km/h (2 Bft)
23.12.2010 11:00 9,6 C -2,0 C 0,0 UV-I 0,0 C 49 % 93 % 0 % 1002,8 hPa 0,0 l/m 12,0 km/h (2 Bft) 0,00 h 0,00 h 11,7 km/h (2 Bft)
23.12.2010 12:00 9,6 C -1,9 C 0,0 UV-I 0,0 C 49 % 93 % 0 % 1002,5 hPa 0,0 l/m 12,8 km/h (3 Bft) 0,00 h 0,00 h 12,9 km/h (3 Bft)
23.12.2010 13:00 9,6 C -1,7 C 0,0 UV-I 0,0 C 48 % 93 % 0 % 1002,2 hPa 0,0 l/m 10,9 km/h (2 Bft) 0,00 h 0,00 h 10,0 km/h (2 Bft)
23.12.2010 14:00 9,7 C -1,4 C 0,0 UV-I 0,0 C 49 % 94 % 0 % 1002,3 hPa 0,0 l/m 9,9 km/h (2 Bft) 0,00 h 0,00 h 10,0 km/h (2 Bft)
23.12.2010 15:00 9,6 C -1,3 C 0,0 UV-I 0,0 C 49 % 95 % 0 % 1002,2 hPa 0,0 l/m 10,6 km/h (2 Bft) 0,00 h 0,00 h 10,3 km/h (2 Bft)
23.12.2010 16:00 9,6 C -1,0 C 0,0 UV-I 0,0 C 49 % 95 % 0 % 1002,4 hPa 0,0 l/m 12,3 km/h (3 Bft) 0,00 h 0,00 h 12,4 km/h (3 Bft)
23.12.2010 17:00 9,6 C -0,8 C 0,0 UV-I 0,0 C 50 % 95 % 0 % 1002,8 hPa 0,0 l/m 13,2 km/h (3 Bft) 0,00 h 0,00 h 13,0 km/h (3 Bft)
23.12.2010 18:00 9,6 C -0,5 C 0,0 UV-I 0,0 C 50 % 95 % 0 % 1003,0 hPa 0,0 l/m 14,6 km/h (3 Bft) 0,00 h 0,00 h 14,4 km/h (3 Bft)
23.12.2010 19:00 9,6 C -0,5 C 0,0 UV-I 0,0 C 51 % 96 % 0 % 1002,8 hPa 0,0 l/m 16,3 km/h (3 Bft) 0,00 h 0,00 h 15,4 km/h (3 Bft)
23.12.2010 20:00 9,6 C -0,6 C 0,0 UV-I 0,0 C 51 % 96 % 0 % 1003,2 hPa 0,0 l/m 16,0 km/h (3 Bft) 0,00 h 0,00 h 16,5 km/h (3 Bft)
23.12.2010 21:00 9,6 C -0,8 C 0,0 UV-I 0,0 C 51 % 95 % 0 % 1003,1 hPa 0,0 l/m 16,0 km/h (3 Bft) 0,00 h 0,00 h 15,4 km/h (3 Bft)
23.12.2010 22:00 9,6 C -0,8 C 0,0 UV-I 0,0 C 51 % 95 % 0 % 1003,3 hPa 0,0 l/m 17,8 km/h (3 Bft) 0,00 h 0,00 h 16,7 km/h (3 Bft)
23.12.2010 23:00 9,6 C -0,9 C 0,0 UV-I 0,0 C 50 % 95 % 0 % 1003,6 hPa 0,0 l/m 15,6 km/h (3 Bft) 0,00 h 0,00 h 15,3 km/h (3 Bft)
24.12.2010 00:00 9,5 C -1,2 C 0,0 UV-I 0,0 C 50 % 95 % 0 % 1004,0 hPa 0,0 l/m 16,5 km/h (3 Bft) 0,00 h 0,00 h 17,8 km/h (3 Bft)
24.12.2010 01:00 9,5 C -1,4 C 0,0 UV-I 0,0 C 51 % 96 % 0 % 1004,4 hPa 0,0 l/m 15,1 km/h (3 Bft) 0,00 h 0,00 h 15,7 km/h (3 Bft)
24.12.2010 02:00 9,4 C -1,5 C 0,0 UV-I 0,0 C 51 % 96 % 0 % 1004,5 hPa 0,0 l/m 18,0 km/h (3 Bft) 0,00 h 0,00 h 18,7 km/h (3 Bft)
24.12.2010 03:00 9,4 C -1,6 C 0,0 UV-I 0,0 C 51 % 96 % 0 % 1004,8 hPa 0,0 l/m 16,7 km/h (3 Bft) 0,00 h 0,00 h 17,8 km/h (3 Bft)
24.12.2010 04:00 9,4 C -1,6 C 0,0 UV-I 0,0 C 51 % 96 % 0 % 1004,5 hPa 0,0 l/m 16,9 km/h (3 Bft) 0,00 h 0,00 h 17,2 km/h (3 Bft)
24.12.2010 05:00 9,4 C -1,7 C 0,0 UV-I 0,0 C 50 % 96 % 0 % 1004,6 hPa 0,0 l/m 19,3 km/h (3 Bft) 0,00 h 0,00 h 21,3 km/h (4 Bft)
24.12.2010 06:00 9,3 C -1,7 C 0,0 UV-I 0,0 C 50 % 96 % 0 % 1005,2 hPa 0,0 l/m 19,5 km/h (3 Bft) 0,00 h 0,00 h 17,9 km/h (3 Bft)
24.12.2010 07:00 9,2 C -1,7 C 0,0 UV-I 0,0 C 50 % 96 % 0 % 1005,9 hPa 0,0 l/m 18,6 km/h (3 Bft) 0,00 h 0,00 h 19,0 km/h (3 Bft)
24.12.2010 08:00 9,2 C -1,7 C 0,0 UV-I 0,0 C 50 % 96 % 0 % 1006,4 hPa 0,0 l/m 20,2 km/h (4 Bft) 0,00 h 0,00 h 20,9 km/h (4 Bft)
24.12.2010 09:00 9,1 C -1,7 C 0,0 UV-I 0,0 C 50 % 96 % 0 % 1007,2 hPa 0,0 l/m 21,0 km/h (4 Bft) 0,00 h 0,00 h 19,0 km/h (3 Bft)
24.12.2010 10:00 9,1 C -1,7 C 0,0 UV-I 0,0 C 49 % 96 % 0 % 1008,1 hPa 0,0 l/m 19,9 km/h (4 Bft) 0,00 h 0,00 h 20,9 km/h (4 Bft)
24.12.2010 11:00 9,2 C -1,7 C 0,0 UV-I 0,0 C 49 % 95 % 0 % 1008,7 hPa 0,0 l/m 21,9 km/h (4 Bft) 0,00 h 0,00 h 21,4 km/h (4 Bft)
24.12.2010 12:00 9,3 C -1,9 C 0,0 UV-I 0,0 C 49 % 95 % 0 % 1009,0 hPa 0,0 l/m 20,4 km/h (4 Bft) 0,00 h 0,00 h 21,1 km/h (4 Bft)
24.12.2010 13:00 9,4 C -2,0 C 0,0 UV-I 0,0 C 48 % 95 % 0 % 1009,2 hPa 0,0 l/m 19,3 km/h (3 Bft) 0,00 h 0,00 h 18,6 km/h (3 Bft)
24.12.2010 14:00 9,2 C -2,1 C 0,0 UV-I 0,0 C 48 % 95 % 0 % 1009,7 hPa 0,0 l/m 19,0 km/h (3 Bft) 0,00 h 0,00 h 17,5 km/h (3 Bft)
24.12.2010 15:00 9,2 C -2,3 C 0,0 UV-I 0,0 C 48 % 95 % 0 % 1009,8 hPa 0,0 l/m 17,6 km/h (3 Bft) 0,00 h 0,00 h 17,6 km/h (3 Bft)
24.12.2010 16:00 8,9 C -2,4 C 0,0 UV-I 0,0 C 47 % 95 % 0 % 1010,4 hPa 0,0 l/m 18,8 km/h (3 Bft) 0,00 h 0,00 h 17,2 km/h (3 Bft)
24.12.2010 17:00 8,7 C -2,6 C 0,0 UV-I 0,0 C 46 % 94 % 0 % 1011,0 hPa 0,0 l/m 18,7 km/h (3 Bft) 0,00 h 0,00 h 19,5 km/h (3 Bft)
24.12.2010 18:00 8,4 C -2,9 C 0,0 UV-I 0,0 C 46 % 94 % 0 % 1012,0 hPa 0,0 l/m 15,0 km/h (3 Bft) 0,00 h 0,00 h 14,6 km/h (3 Bft)
24.12.2010 19:00 8,3 C -2,9 C 0,0 UV-I 0,0 C 46 % 94 % 0 % 1012,7 hPa 0,0 l/m 16,1 km/h (3 Bft) 0,00 h 0,00 h 15,3 km/h (3 Bft)
24.12.2010 20:00 8,4 C -3,0 C 0,0 UV-I 0,0 C 46 % 93 % 0 % 1013,7 hPa 0,0 l/m 13,3 km/h (3 Bft) 0,00 h 0,00 h 13,0 km/h (3 Bft)
24.12.2010 21:00 8,2 C -3,1 C 0,0 UV-I 0,0 C 45 % 92 % 0 % 1014,4 hPa 0,0 l/m 16,2 km/h (3 Bft) 0,00 h 0,00 h 14,7 km/h (3 Bft)
24.12.2010 22:00 8,2 C -3,2 C 0,0 UV-I 0,0 C 45 % 90 % 0 % 1014,7 hPa 0,0 l/m 18,2 km/h (3 Bft) 0,00 h 0,00 h 18,5 km/h (3 Bft)
24.12.2010 23:00 8,1 C -3,2 C 0,0 UV-I 0,0 C 45 % 90 % 0 % 1015,5 hPa 0,0 l/m 15,2 km/h (3 Bft) 0,00 h 0,00 h 13,9 km/h (3 Bft)
25.12.2010 00:00 8,0 C -3,4 C 0,0 UV-I 0,0 C 45 % 88 % 0 % 1016,0 hPa 0,0 l/m 15,6 km/h (3 Bft) 0,00 h 0,00 h 17,0 km/h (3 Bft)
25.12.2010 01:00 7,9 C -3,8 C 0,0 UV-I 0,0 C 44 % 87 % 0 % 1016,2 hPa 0,0 l/m 18,3 km/h (3 Bft) 0,00 h 0,00 h 18,4 km/h (3 Bft)
25.12.2010 02:00 7,8 C -4,1 C 0,0 UV-I 0,0 C 44 % 87 % 0 % 1016,8 hPa 0,0 l/m 17,6 km/h (3 Bft) 0,00 h 0,00 h 17,1 km/h (3 Bft)
25.12.2010 03:00 7,8 C -4,4 C 0,0 UV-I 0,0 C 44 % 88 % 0 % 1017,4 hPa 0,0 l/m 13,2 km/h (3 Bft) 0,00 h 0,00 h 11,7 km/h (2 Bft)
25.12.2010 04:00 7,6 C -4,8 C 0,0 UV-I 0,0 C 43 % 88 % 0 % 1018,0 hPa 0,0 l/m 11,6 km/h (2 Bft) 0,00 h 0,00 h 11,2 km/h (2 Bft)
25.12.2010 05:00 7,5 C -5,1 C 0,0 UV-I 0,0 C 43 % 88 % 0 % 1018,5 hPa 0,0 l/m 9,4 km/h (2 Bft) 0,00 h 0,00 h 9,3 km/h (2 Bft)
25.12.2010 06:00 7,6 C -5,6 C 0,0 UV-I 0,0 C 43 % 88 % 0 % 1018,5 hPa 0,0 l/m 6,3 km/h (2 Bft) 0,00 h 0,00 h 7,8 km/h (2 Bft)
25.12.2010 07:00 7,5 C -5,8 C 0,0 UV-I 0,0 C 43 % 89 % 0 % 1018,5 hPa 0,0 l/m 6,5 km/h (2 Bft) 0,00 h 0,00 h 6,2 km/h (2 Bft)
25.12.2010 08:00 7,4 C -6,2 C 0,0 UV-I 0,0 C 43 % 90 % 0 % 1018,5 hPa 0,0 l/m 4,1 km/h (1 Bft) 0,00 h 0,00 h 4,1 km/h (1 Bft)
25.12.2010 09:00 7,4 C -6,5 C 0,0 UV-I 0,0 C 42 % 90 % 0 % 1020,7 hPa 0,0 l/m 1,3 km/h (1 Bft) 0,00 h 0,00 h 1,9 km/h (1 Bft)
25.12.2010 10:00 7,5 C -6,0 C 0,0 UV-I 0,4 C 42 % 90 % 11 % 1022,4 hPa 0,0 l/m 1,8 km/h (1 Bft) 0,00 h 0,00 h 2,0 km/h (1 Bft)
25.12.2010 11:00 7,8 C -5,4 C 0,0 UV-I 1,2 C 42 % 90 % 34 % 1022,4 hPa 0,0 l/m 1,3 km/h (1 Bft) 0,00 h 0,00 h 1,6 km/h (1 Bft)
25.12.2010 12:00 8,1 C -4,8 C 0,0 UV-I 2,3 C 42 % 89 % 66 % 1023,8 hPa 0,0 l/m 2,4 km/h (1 Bft) 0,60 h 0,00 h 2,9 km/h (1 Bft)
25.12.2010 13:00 8,4 C -4,1 C 0,0 UV-I 4,1 C 42 % 88 % 96 % 1024,8 hPa 0,0 l/m 2,2 km/h (1 Bft) 1,00 h 0,00 h 3,1 km/h (1 Bft)
25.12.2010 14:00 8,8 C -4,2 C 0,0 UV-I 2,8 C 41 % 87 % 72 % 1025,0 hPa 0,0 l/m 2,2 km/h (1 Bft) 0,83 h 0,00 h 2,3 km/h (1 Bft)
25.12.2010 15:00 8,7 C -4,8 C 0,0 UV-I 0,0 C 41 % 87 % 1 % 1025,2 hPa 0,0 l/m 0,3 km/h (0 Bft) 0,00 h 0,00 h 0,1 km/h (0 Bft)
25.12.2010 16:00 8,4 C -5,7 C 0,0 UV-I 0,0 C 41 % 88 % 0 % 1025,9 hPa 0,0 l/m 0,0 km/h (0 Bft) 0,00 h 0,00 h 0,1 km/h (0 Bft)
25.12.2010 17:00 7,9 C -7,1 C 0,0 UV-I 0,0 C 41 % 89 % 0 % 1025,9 hPa 0,0 l/m 0,0 km/h (0 Bft) 0,00 h 0,00 h 0,0 km/h (0 Bft)
25.12.2010 18:00 7,7 C -6,6 C 0,0 UV-I 0,0 C 42 % 91 % 0 % 1025,9 hPa 0,0 l/m 0,1 km/h (0 Bft) 0,00 h 0,00 h 0,1 km/h (0 Bft)
25.12.2010 19:00 7,8 C -6,2 C 0,0 UV-I 0,0 C 43 % 91 % 0 % 1026,3 hPa 0,0 l/m 0,0 km/h (0 Bft) 0,00 h 0,00 h 0,0 km/h (0 Bft)
25.12.2010 20:00 7,8 C -5,8 C 0,0 UV-I 0,0 C 43 % 91 % 0 % 1027,4 hPa 0,0 l/m 0,2 km/h (0 Bft) 0,00 h 0,00 h 0,6 km/h (0 Bft)
25.12.2010 21:00 7,8 C -5,1 C 0,0 UV-I 0,0 C 43 % 91 % 0 % 1027,4 hPa 0,0 l/m 0,5 km/h (0 Bft) 0,00 h 0,00 h 0,5 km/h (0 Bft)
25.12.2010 22:00 7,9 C -4,9 C 0,0 UV-I 0,0 C 43 % 91 % 0 % 1027,4 hPa 0,0 l/m 0,4 km/h (0 Bft) 0,00 h 0,00 h 1,2 km/h (1 Bft)
25.12.2010 23:00 7,9 C -5,0 C 0,0 UV-I 0,0 C 43 % 91 % 0 % 1027,4 hPa 0,0 l/m 4,5 km/h (1 Bft) 0,00 h 0,00 h 5,2 km/h (1 Bft)
26.12.2010 00:00 7,8 C -5,0 C 0,0 UV-I 0,0 C 43 % 91 % 0 % 1027,4 hPa 0,0 l/m 5,0 km/h (1 Bft) 0,00 h 0,00 h 6,0 km/h (2 Bft)
26.12.2010 01:00 7,9 C -4,7 C 0,0 UV-I 0,0 C 43 % 91 % 0 % 1027,4 hPa 0,0 l/m 6,1 km/h (2 Bft) 0,00 h 0,00 h 7,5 km/h (2 Bft)
26.12.2010 02:00 7,9 C -4,0 C 0,0 UV-I 0,0 C 44 % 91 % 0 % 1025,8 hPa 0,0 l/m 2,9 km/h (1 Bft) 0,00 h 0,00 h 3,6 km/h (1 Bft)
26.12.2010 03:00 8,0 C -3,4 C 0,0 UV-I 0,0 C 44 % 92 % 0 % 1025,4 hPa 0,0 l/m 2,5 km/h (1 Bft) 0,00 h 0,00 h 2,9 km/h (1 Bft)
26.12.2010 04:00 8,0 C -2,7 C 0,0 UV-I 0,0 C 45 % 92 % 0 % 1025,3 hPa 0,0 l/m 1,7 km/h (1 Bft) 0,00 h 0,00 h 1,9 km/h (1 Bft)
26.12.2010 05:00 8,2 C -1,9 C 0,0 UV-I 0,0 C 46 % 93 % 0 % 1024,9 hPa 0,0 l/m 2,2 km/h (1 Bft) 0,00 h 0,00 h 3,5 km/h (1 Bft)
26.12.2010 06:00 8,2 C -1,1 C 0,0 UV-I 0,0 C 47 % 94 % 0 % 1024,6 hPa 0,0 l/m 4,3 km/h (1 Bft) 0,00 h 0,00 h 5,6 km/h (1 Bft)
26.12.2010 07:00 8,2 C -0,5 C 0,0 UV-I 0,0 C 48 % 94 % 0 % 1024,6 hPa 0,0 l/m 5,3 km/h (1 Bft) 0,00 h 0,00 h 6,8 km/h (2 Bft)
26.12.2010 08:00 8,3 C -0,1 C 0,0 UV-I 0,0 C 49 % 94 % 0 % 1024,6 hPa 0,0 l/m 4,2 km/h (1 Bft) 0,00 h 0,00 h 5,3 km/h (1 Bft)
26.12.2010 09:00 8,4 C 0,4 C 0,0 UV-I 0,0 C 50 % 94 % 0 % 1024,6 hPa 0,0 l/m 4,8 km/h (1 Bft) 0,00 h 0,00 h 5,5 km/h (1 Bft)
26.12.2010 10:00 8,5 C 0,7 C 0,0 UV-I 0,0 C 51 % 94 % 0 % 1024,6 hPa 0,0 l/m 4,8 km/h (1 Bft) 0,00 h 0,00 h 5,4 km/h (1 Bft)
26.12.2010 11:00 8,8 C 1,1 C 0,0 UV-I 0,2 C 51 % 94 % 6 % 1025,4 hPa 0,0 l/m 2,4 km/h (1 Bft) 0,00 h 0,00 h 3,7 km/h (1 Bft)
26.12.2010 12:00 9,0 C 1,6 C 0,4 UV-I 0,9 C 52 % 94 % 26 % 1026,1 hPa 0,1 l/m 3,4 km/h (1 Bft) 0,00 h 0,00 h 3,5 km/h (1 Bft)
26.12.2010 13:00 9,2 C 1,6 C 0,8 UV-I 0,5 C 51 % 93 % 15 % 1026,1 hPa 0,0 l/m 3,6 km/h (1 Bft) 0,00 h 0,00 h 4,0 km/h (1 Bft)
26.12.2010 14:00 9,3 C 1,3 C 0,5 UV-I 0,3 C 52 % 93 % 8 % 1026,0 hPa 0,0 l/m 4,1 km/h (1 Bft) 0,00 h 0,00 h 4,8 km/h (1 Bft)
26.12.2010 15:00 9,3 C 1,2 C 0,2 UV-I 0,0 C 52 % 94 % 0 % 1025,7 hPa 0,0 l/m 2,7 km/h (1 Bft) 0,00 h 0,00 h 3,8 km/h (1 Bft)
26.12.2010 16:00 9,2 C 1,1 C 0,0 UV-I 0,0 C 53 % 94 % 0 % 1025,7 hPa 0,0 l/m 3,0 km/h (1 Bft) 0,00 h 0,00 h 3,5 km/h (1 Bft)
26.12.2010 17:00 9,2 C 1,0 C 0,0 UV-I 0,0 C 53 % 94 % 0 % 1025,7 hPa 0,0 l/m 4,4 km/h (1 Bft) 0,00 h 0,00 h 5,6 km/h (1 Bft)
26.12.2010 18:00 9,1 C 0,9 C 0,0 UV-I 0,0 C 54 % 95 % 0 % 1025,6 hPa 0,0 l/m 6,8 km/h (2 Bft) 0,00 h 0,00 h 7,2 km/h (2 Bft)
26.12.2010 19:00 9,1 C 1,1 C 0,0 UV-I 0,0 C 54 % 95 % 0 % 1025,4 hPa 0,0 l/m 5,9 km/h (2 Bft) 0,00 h 0,00 h 6,8 km/h (2 Bft)
26.12.2010 20:00 9,1 C 1,2 C 0,0 UV-I 0,0 C 55 % 95 % 0 % 1025,2 hPa 0,0 l/m 5,3 km/h (1 Bft) 0,00 h 0,00 h 6,6 km/h (2 Bft)
26.12.2010 21:00 9,2 C 1,4 C 0,0 UV-I 0,0 C 55 % 95 % 0 % 1025,1 hPa 0,0 l/m 6,2 km/h (2 Bft) 0,00 h 0,00 h 7,0 km/h (2 Bft)
26.12.2010 22:00 9,2 C 1,5 C 0,0 UV-I 0,0 C 55 % 95 % 0 % 1025,1 hPa 0,0 l/m 6,2 km/h (2 Bft) 0,00 h 0,00 h 8,9 km/h (2 Bft)
26.12.2010 23:00 9,1 C 1,4 C 0,0 UV-I 0,0 C 55 % 95 % 0 % 1025,1 hPa 0,0 l/m 7,9 km/h (2 Bft) 0,00 h 0,00 h 8,7 km/h (2 Bft)
Min-Datum _ 25.12.10 20.12.10 20.12.10 20.12.10 25.12.10 25.12.10 20.12.10 20.12.10 - 20.12.10 - - 20.12.10
_ Min-Zeit 08:28 21:06 00:00 00:00 14:10 01:44 00:00 00:00 - 05:42 - - 00:00
Minimum _ 7,3 C -7,9 C 0,0 UV-I 0,0 C 41 % 86 % 0 % 990,6 hPa - 0,0 km/h (0 Bft) - - 0,0 km/h (0 Bft)
Max-Datum _ 22.12.10 26.12.10 26.12.10 25.12.10 26.12.10 23.12.10 20.12.10 25.12.10 22.12.10 24.12.10 20.12.10 20.12.10 24.12.10
_ Max-Zeit 14:14 12:44 12:54 13:58 19:56 19:12 13:46 19:46 13:00 11:20 13:42 00:00 11:56
Maximum _ 10,7 C 1,9 C 0,9 UV-I 5,3 C 55 % 96 % 100 % 1027,4 hPa 0,6 l/m 25,7 km/h
SW (4 Bft)
0,03 h 0,00 h 43,5 km/h
SW (6 Bft)
Durchschnitt _ 9,1 C -1,9 C 0,0 UV-I 0,1 C 48 % 93 % 3 % 1010,0 hPa #3,2 l/m 6,4 km/h (2 Bft) #3:36 h #0 min. 6,7 km/h (2 Bft)
© 2012 W. Hausmann